createdAt,value
2019-04-06T00:01:46.161Z,109.47
2019-04-06T00:04:15.171Z,119.23
2019-04-06T00:06:44.079Z,108.30
2019-04-06T00:09:16.017Z,112.17
2019-04-06T00:11:44.920Z,120.23
2019-04-06T00:14:13.861Z,121.53
2019-04-06T00:16:45.692Z,127.17
2019-04-06T00:19:14.654Z,123.63
2019-04-06T00:21:46.286Z,118.33
2019-04-06T00:24:15.237Z,111.17
2019-04-06T00:26:44.148Z,113.93
2019-04-06T00:29:13.094Z,109.37
2019-04-06T00:31:46.277Z,113.43
2019-04-06T00:34:15.230Z,112.30
2019-04-06T00:36:44.180Z,126.77
2019-04-06T00:39:13.193Z,117.70
2019-04-06T00:41:45.046Z,103.50
2019-04-06T00:44:14.002Z,108.87
2019-04-06T00:46:45.601Z,111.90
2019-04-06T00:49:14.551Z,104.73
2019-04-06T00:51:43.445Z,108.03
2019-04-06T00:54:16.270Z,118.73
2019-04-06T00:56:46.116Z,123.27
2019-04-06T00:59:15.086Z,112.57
2019-04-06T01:01:44.060Z,119.53
2019-04-06T01:04:16.299Z,138.30
2019-04-06T01:06:45.251Z,123.27
2019-04-06T01:09:14.378Z,127.27
2019-04-06T01:11:43.327Z,132.27
2019-04-06T01:14:13.766Z,144.23
2019-04-06T01:16:45.474Z,127.97
2019-04-06T01:19:14.380Z,136.90
2019-04-06T01:21:46.255Z,133.50
2019-04-06T01:24:15.164Z,134.97
2019-04-06T01:26:44.132Z,134.97
2019-04-06T01:29:15.967Z,138.93
2019-04-06T01:31:44.977Z,132.33
2019-04-06T01:34:13.923Z,140.33
2019-04-06T01:36:45.997Z,149.63
2019-04-06T01:39:14.902Z,132.87
2019-04-06T01:41:43.842Z,138.77
2019-04-06T01:44:14.209Z,137.10
2019-04-06T01:46:43.678Z,135.57
2019-04-06T01:49:12.606Z,126.13
2019-04-06T01:51:44.621Z,130.20
2019-04-06T01:54:13.534Z,126.83
2019-04-06T01:56:45.444Z,135.13
2019-04-06T01:59:14.354Z,128.07
2019-04-06T02:01:44.887Z,130.07
2019-04-06T02:04:13.788Z,149.83
2019-04-06T02:06:44.272Z,157.30
2019-04-06T02:09:16.096Z,174.30
2019-04-06T02:11:45.103Z,165.33
2019-04-06T02:14:14.065Z,167.13
2019-04-06T02:16:45.927Z,173.77
2019-04-06T02:19:14.839Z,167.33
2019-04-06T02:21:43.776Z,168.00
2019-04-06T02:24:15.664Z,175.77
2019-04-06T02:26:44.617Z,158.00
2019-04-06T02:29:13.531Z,158.70
2019-04-06T02:32:03.223Z,176.90
2019-04-06T02:34:36.655Z,174.30
2019-04-06T02:37:11.804Z,177.13
2019-04-06T02:39:58.584Z,158.83
2019-04-06T02:42:45.407Z,156.73
2019-04-06T02:45:17.050Z,156.40
2019-04-06T02:47:46.045Z,160.40
2019-04-06T02:50:15.001Z,181.77
2019-04-06T02:52:43.952Z,178.10
2019-04-06T02:55:15.591Z,179.57
2019-04-06T02:57:44.541Z,191.90
2019-04-06T03:00:16.430Z,182.43
2019-04-06T03:02:45.555Z,170.50
2019-04-06T03:05:15.925Z,181.47
2019-04-06T03:07:44.867Z,171.20
2019-04-06T03:10:15.507Z,193.27
2019-04-06T03:12:44.613Z,188.67
2019-04-06T03:15:14.988Z,183.83
2019-04-06T03:17:47.017Z,178.47
2019-04-06T03:20:15.964Z,178.83
2019-04-06T03:22:47.691Z,178.03
2019-04-06T03:25:16.595Z,171.00
2019-04-06T03:27:45.538Z,188.17
2019-04-06T03:30:14.652Z,177.77
2019-04-06T03:32:45.174Z,192.43
2019-04-06T03:35:16.742Z,176.43
2019-04-06T03:37:45.696Z,174.93
2019-04-06T03:40:16.080Z,173.27
2019-04-06T03:42:48.013Z,187.63
2019-04-06T03:45:17.124Z,167.50
2019-04-06T03:47:46.258Z,174.83
2019-04-06T03:50:18.367Z,180.97
2019-04-06T03:52:47.313Z,164.00
2019-04-06T03:55:16.232Z,177.77
2019-04-06T03:57:48.090Z,162.53
2019-04-06T04:00:17.277Z,166.00
2019-04-06T04:02:49.493Z,168.97
2019-04-06T04:05:18.559Z,165.10
2019-04-06T04:07:50.555Z,164.63
2019-04-06T04:10:31.003Z,161.70
2019-04-06T04:13:00.094Z,155.77
2019-04-06T04:15:29.323Z,158.50
2019-04-06T04:17:58.266Z,151.23
2019-04-06T04:20:27.412Z,151.30
2019-04-06T04:22:56.345Z,152.57
2019-04-06T04:25:25.456Z,155.73
2019-04-06T04:27:54.609Z,156.20
2019-04-06T04:30:32.262Z,158.13
2019-04-06T04:32:54.120Z,162.67
2019-04-06T04:35:23.065Z,146.23
2019-04-06T04:37:51.969Z,152.00
2019-04-06T04:40:20.959Z,149.30
2019-04-06T04:42:49.922Z,165.77
2019-04-06T04:45:18.888Z,157.57
2019-04-06T04:47:50.955Z,155.63
2019-04-06T04:50:20.124Z,156.80
2019-04-06T04:52:49.339Z,152.83
2019-04-06T04:55:18.294Z,144.97
2019-04-06T04:57:48.703Z,153.10
2019-04-06T05:00:20.558Z,155.93
2019-04-06T05:02:49.452Z,153.17
2019-04-06T05:05:18.421Z,148.13
2019-04-06T05:07:48.785Z,139.10
2019-04-06T05:10:20.517Z,140.83
2019-04-06T05:12:49.426Z,143.47
2019-04-06T05:15:30.290Z,141.60
2019-04-06T05:17:59.227Z,138.43
2019-04-06T05:20:28.251Z,135.90
2019-04-06T05:23:00.037Z,139.20
2019-04-06T05:25:31.757Z,135.83
2019-04-06T05:28:00.666Z,132.63
2019-04-06T05:30:29.927Z,134.50
2019-04-06T05:33:01.956Z,139.47
2019-04-06T05:35:30.903Z,132.30
2019-04-06T05:37:59.815Z,128.97
2019-04-06T05:40:30.234Z,121.77
2019-04-06T05:43:01.224Z,121.60
2019-04-06T05:45:30.334Z,123.07
2019-04-06T05:47:59.393Z,117.93
2019-04-06T05:50:30.805Z,124.00
2019-04-06T05:52:59.774Z,114.50
2019-04-06T05:55:28.713Z,109.83
2019-04-06T05:58:03.994Z,106.53
2019-04-06T06:00:28.883Z,104.73
2019-04-06T06:02:57.891Z,109.17
2019-04-06T06:05:26.796Z,102.67
2019-04-06T06:07:55.837Z,97.30
2019-04-06T06:10:24.752Z,97.57
2019-04-06T06:12:53.686Z,89.17
2019-04-06T06:15:22.587Z,94.87
2019-04-06T06:17:51.543Z,83.17
2019-04-06T06:20:20.436Z,81.83
2019-04-06T06:22:49.387Z,90.97
2019-04-06T06:25:18.463Z,86.50
2019-04-06T06:27:47.793Z,82.67
2019-04-06T06:30:18.665Z,89.20
2019-04-06T06:32:47.812Z,87.10
2019-04-06T06:35:16.965Z,85.43
2019-04-06T06:37:46.250Z,82.20
2019-04-06T06:40:15.871Z,77.40
2019-04-06T06:42:44.813Z,79.50
2019-04-06T06:45:13.820Z,80.53
2019-04-06T06:47:42.753Z,75.03
2019-04-06T06:50:12.036Z,72.77
2019-04-06T06:52:41.002Z,67.73
2019-04-06T06:55:10.548Z,79.80
2019-04-06T06:57:39.552Z,68.80
2019-04-06T07:00:09.136Z,70.17
2019-04-06T07:02:38.078Z,70.43
2019-04-06T07:05:07.593Z,67.67
2019-04-06T07:07:36.833Z,70.60
2019-04-06T07:10:07.945Z,66.07
2019-04-06T07:12:39.940Z,62.83
2019-04-06T07:15:09.363Z,67.80
2019-04-06T07:17:38.336Z,63.93
2019-04-06T07:20:07.759Z,67.83
2019-04-06T07:22:38.132Z,67.13
2019-04-06T07:25:07.523Z,57.93
2019-04-06T07:27:36.478Z,62.50
2019-04-06T07:30:08.314Z,60.90
2019-04-06T07:32:38.750Z,61.93
2019-04-06T07:35:08.518Z,69.47
2019-04-06T07:37:37.773Z,69.10
2019-04-06T07:40:09.388Z,73.60
2019-04-06T07:42:38.291Z,71.50
2019-04-06T07:45:07.872Z,67.67
2019-04-06T07:47:37.195Z,65.20
2019-04-06T07:50:07.709Z,66.60
2019-04-06T07:52:38.162Z,62.73
2019-04-06T07:55:08.302Z,63.50
2019-04-06T07:57:37.383Z,62.57
2019-04-06T08:00:08.189Z,63.77
2019-04-06T08:02:38.598Z,60.73
2019-04-06T08:05:10.546Z,65.27
2019-04-06T08:07:39.462Z,59.80
2019-04-06T08:10:08.696Z,66.47
2019-04-06T08:12:40.571Z,63.17
2019-04-06T08:15:10.052Z,67.37
2019-04-06T08:17:39.032Z,56.13
2019-04-06T08:20:08.706Z,61.50
2019-04-06T08:22:40.853Z,53.40
2019-04-06T08:25:09.848Z,49.67
2019-04-06T08:27:39.052Z,54.83
2019-04-06T08:30:12.475Z,53.73
2019-04-06T08:32:41.470Z,50.07
2019-04-06T08:35:10.549Z,52.60
2019-04-06T08:37:39.487Z,44.07
2019-04-06T08:40:08.983Z,50.63
2019-04-06T08:42:39.764Z,50.10
2019-04-06T08:45:09.923Z,54.97
2019-04-06T08:47:38.861Z,50.43
2019-04-06T08:50:08.606Z,58.13
2019-04-06T08:52:38.970Z,55.37
2019-04-06T08:55:08.242Z,50.53
2019-04-06T08:57:37.207Z,51.90
2019-04-06T09:00:11.483Z,55.50
2019-04-06T09:02:40.382Z,53.70
2019-04-06T09:05:09.821Z,52.63
2019-04-06T09:07:40.768Z,53.60
2019-04-06T09:10:10.845Z,51.50
2019-04-06T09:12:39.809Z,46.00
2019-04-06T09:15:11.067Z,44.80
2019-04-06T09:17:44.159Z,46.83
2019-04-06T09:20:13.680Z,50.23
2019-04-06T09:22:42.581Z,52.70
2019-04-06T09:25:11.922Z,49.00
2019-04-06T09:27:40.933Z,51.47
2019-04-06T09:30:09.953Z,49.60
2019-04-06T09:32:38.973Z,50.80
2019-04-06T09:35:09.361Z,51.50
2019-04-06T09:37:40.024Z,50.40
2019-04-06T09:40:10.523Z,43.57
2019-04-06T09:42:39.692Z,46.30
2019-04-06T09:45:14.035Z,47.90
2019-04-06T09:48:00.223Z,40.83
2019-04-06T09:50:38.350Z,44.10
2019-04-06T09:53:27.705Z,46.63
2019-04-06T09:56:01.188Z,46.07
2019-04-06T09:58:49.965Z,47.03
2019-04-06T10:01:38.564Z,47.67
2019-04-06T10:04:04.316Z,52.33
2019-04-06T10:06:38.168Z,56.10
2019-04-06T10:09:20.324Z,50.87
2019-04-06T10:11:56.463Z,45.03
2019-04-06T10:14:32.943Z,43.97
2019-04-06T10:17:08.080Z,42.93
2019-04-06T10:19:44.444Z,43.90
2019-04-06T10:22:30.043Z,45.93
2019-04-06T10:25:07.034Z,45.27
2019-04-06T10:27:54.070Z,48.27
2019-04-06T10:30:30.823Z,39.63
2019-04-06T10:33:04.378Z,42.23
2019-04-06T10:35:41.611Z,44.37
2019-04-06T10:38:13.662Z,45.33
2019-04-06T10:40:44.175Z,45.17
2019-04-06T10:43:14.734Z,40.63
2019-04-06T10:45:56.534Z,45.60
2019-04-06T10:48:45.982Z,42.90
2019-04-06T10:51:33.320Z,45.50
2019-04-06T10:54:04.052Z,45.57
2019-04-06T10:56:41.139Z,55.20
2019-04-06T10:59:15.025Z,47.97
2019-04-06T11:02:02.455Z,42.13
2019-04-06T11:04:39.027Z,41.17
2019-04-06T11:07:12.511Z,44.20
2019-04-06T11:09:43.109Z,46.87
2019-04-06T11:12:16.546Z,42.80
2019-04-06T11:14:47.079Z,46.00
2019-04-06T11:17:17.605Z,41.00
2019-04-06T11:20:00.320Z,45.63
2019-04-06T11:22:46.231Z,43.20
2019-04-06T11:25:16.806Z,45.23
2019-04-06T11:27:47.334Z,43.77
2019-04-06T11:30:21.002Z,43.90
2019-04-06T11:33:00.404Z,45.00
2019-04-06T11:35:33.377Z,47.67
2019-04-06T11:38:03.887Z,49.70
2019-04-06T11:40:50.661Z,48.87
2019-04-06T11:43:33.414Z,48.17
2019-04-06T11:46:22.043Z,45.33
2019-04-06T11:48:52.649Z,46.60
2019-04-06T11:51:39.690Z,44.87
2019-04-06T11:54:10.319Z,43.20
2019-04-06T11:56:56.194Z,44.10
2019-04-06T11:59:43.231Z,44.07
2019-04-06T12:02:32.264Z,44.93
2019-04-06T12:05:02.984Z,49.43
2019-04-06T12:07:42.156Z,42.50
2019-04-06T12:10:29.759Z,51.73
2019-04-06T12:13:02.780Z,43.43
2019-04-06T12:15:45.632Z,43.43
2019-04-06T12:18:31.540Z,45.37
2019-04-06T12:21:11.720Z,45.40
2019-04-06T12:23:52.672Z,49.73
2019-04-06T12:26:28.890Z,45.33
2019-04-06T12:29:00.351Z,48.27
2019-04-06T12:31:44.004Z,44.07
2019-04-06T12:34:15.232Z,42.10
2019-04-06T12:36:49.152Z,41.53
2019-04-06T12:39:20.700Z,44.20
2019-04-06T12:41:51.631Z,48.03
2019-04-06T12:44:28.298Z,48.87
2019-04-06T12:47:16.480Z,47.27
2019-04-06T12:49:47.261Z,43.87
2019-04-06T12:52:19.397Z,48.40
2019-04-06T12:54:55.933Z,47.03
2019-04-06T12:57:32.701Z,43.83
2019-04-06T13:00:19.362Z,47.13
2019-04-06T13:03:06.785Z,41.30
2019-04-06T13:05:53.501Z,46.93
2019-04-06T13:08:24.138Z,45.77
2019-04-06T13:10:57.709Z,41.73
2019-04-06T13:13:28.316Z,45.07
2019-04-06T13:16:01.515Z,43.67
2019-04-06T13:18:33.268Z,42.80
2019-04-06T13:21:10.360Z,43.47
2019-04-06T13:23:45.486Z,45.43
2019-04-06T13:26:16.585Z,45.63
2019-04-06T13:28:47.318Z,44.70
2019-04-06T13:31:23.966Z,44.30
2019-04-06T13:33:58.371Z,46.33
2019-04-06T13:36:45.251Z,41.60
2019-04-06T13:39:15.773Z,47.30
2019-04-06T13:41:52.581Z,44.20
2019-04-06T13:44:26.058Z,41.10
2019-04-06T13:47:02.615Z,44.20
2019-04-06T13:49:48.254Z,49.17
2019-04-06T13:52:30.949Z,49.50
2019-04-06T13:55:17.095Z,46.73
2019-04-06T13:57:56.736Z,44.80
2019-04-06T14:00:28.372Z,45.67
2019-04-06T14:03:08.290Z,44.20
2019-04-06T14:05:44.774Z,42.63
2019-04-06T14:08:31.825Z,47.97
2019-04-06T14:11:21.064Z,47.40
2019-04-06T14:14:10.752Z,44.50
2019-04-06T14:16:40.892Z,41.43
2019-04-06T14:19:28.050Z,48.93
2019-04-06T14:21:58.852Z,45.13
2019-04-06T14:24:35.355Z,45.37
2019-04-06T14:27:18.354Z,44.40
2019-04-06T14:29:49.044Z,53.03
2019-04-06T14:32:28.391Z,50.93
2019-04-06T14:34:59.226Z,49.47
2019-04-06T14:37:30.172Z,50.50
2019-04-06T14:40:12.977Z,60.33
2019-04-06T14:43:00.143Z,50.50
2019-04-06T14:45:47.560Z,47.70
2019-04-06T14:48:19.006Z,45.43
2019-04-06T14:50:49.628Z,43.73
2019-04-06T14:53:20.343Z,53.80
2019-04-06T14:55:59.838Z,49.97
2019-04-06T14:58:36.816Z,46.83
2019-04-06T15:01:13.521Z,45.50
2019-04-06T15:03:47.035Z,52.40
2019-04-06T15:06:17.566Z,45.90
2019-04-06T15:08:48.057Z,49.77
2019-04-06T15:11:24.130Z,47.20
2019-04-06T15:14:13.792Z,48.27
2019-04-06T15:16:57.372Z,50.47
2019-04-06T15:19:30.639Z,73.67
2019-04-06T15:22:13.984Z,44.50
2019-04-06T15:24:54.810Z,46.37
2019-04-06T15:27:28.262Z,48.87
2019-04-06T15:30:16.885Z,48.40
2019-04-06T15:32:47.804Z,45.73
2019-04-06T15:35:36.491Z,48.60
2019-04-06T15:38:25.251Z,43.13
2019-04-06T15:40:55.748Z,45.73
2019-04-06T15:43:32.794Z,49.73
2019-04-06T15:46:18.859Z,47.50
2019-04-06T15:49:01.332Z,45.60
2019-04-06T15:51:48.500Z,49.87
2019-04-06T15:54:22.224Z,44.87
2019-04-06T15:56:59.258Z,44.17
2019-04-06T15:59:38.429Z,44.23
2019-04-06T16:02:27.046Z,54.00
2019-04-06T16:05:13.745Z,43.73
2019-04-06T16:08:00.731Z,45.53
2019-04-06T16:10:31.715Z,44.70
2019-04-06T16:13:05.330Z,48.13
2019-04-06T16:15:35.888Z,44.83
2019-04-06T16:18:09.484Z,45.87
2019-04-06T16:20:54.995Z,45.60
2019-04-06T16:23:38.059Z,46.97
2019-04-06T16:26:24.961Z,46.37
2019-04-06T16:29:11.952Z,39.57
2019-04-06T16:31:42.461Z,46.33
2019-04-06T16:34:15.711Z,49.27
2019-04-06T16:37:04.573Z,47.07
2019-04-06T16:39:40.915Z,48.47
2019-04-06T16:42:23.382Z,45.73
2019-04-06T16:44:54.134Z,43.10
2019-04-06T16:47:24.935Z,43.33
2019-04-06T16:49:55.555Z,48.47
2019-04-06T16:52:31.934Z,53.13
2019-04-06T16:55:14.821Z,44.33
2019-04-06T16:57:48.298Z,50.97
2019-04-06T17:00:20.657Z,43.60
2019-04-06T17:02:51.609Z,50.93
2019-04-06T17:05:23.418Z,41.30
2019-04-06T17:08:11.874Z,44.03
2019-04-06T17:10:39.831Z,48.03
2019-04-06T17:13:10.377Z,43.70
2019-04-06T17:15:47.092Z,40.20
2019-04-06T17:18:17.593Z,45.33
2019-04-06T17:20:51.120Z,42.23
2019-04-06T17:23:21.654Z,41.83
2019-04-06T17:25:55.272Z,45.33
2019-04-06T17:28:43.452Z,46.27
2019-04-06T17:31:14.166Z,44.97
2019-04-06T17:33:47.700Z,42.93
2019-04-06T17:36:18.559Z,45.97
2019-04-06T17:38:58.109Z,48.43
2019-04-06T17:41:40.718Z,44.80
2019-04-06T17:44:20.182Z,42.80
2019-04-06T17:47:08.975Z,40.23
2019-04-06T17:49:42.806Z,45.40
2019-04-06T17:52:19.469Z,42.77
2019-04-06T17:54:55.891Z,49.00
2019-04-06T17:57:32.144Z,44.03
2019-04-06T18:00:05.115Z,46.30
2019-04-06T18:02:54.018Z,46.93
2019-04-06T18:06:02.527Z,42.20
2019-04-06T18:08:35.973Z,41.73
2019-04-06T18:11:12.571Z,47.33
2019-04-06T18:13:51.057Z,54.63
2019-04-06T18:16:23.282Z,42.60
2019-04-06T18:18:52.583Z,46.57
2019-04-06T18:21:26.037Z,48.20
2019-04-06T18:23:55.269Z,42.20
2019-04-06T18:26:38.904Z,43.80
2019-04-06T18:29:09.689Z,40.17
2019-04-06T18:31:40.288Z,41.37
2019-04-06T18:34:09.253Z,45.33
2019-04-06T18:36:49.149Z,46.23
2019-04-06T18:39:19.627Z,46.83
2019-04-06T18:41:55.148Z,53.53
2019-04-06T18:44:27.422Z,43.13
2019-04-06T18:46:56.710Z,46.10
2019-04-06T18:49:26.037Z,45.57
2019-04-06T18:51:55.076Z,44.37
2019-04-06T18:54:25.440Z,44.90
2019-04-06T18:56:56.255Z,48.47
2019-04-06T18:59:25.158Z,41.87
2019-04-06T19:01:54.133Z,41.37
2019-04-06T19:04:26.083Z,43.20
2019-04-06T19:06:55.036Z,55.07
2019-04-06T19:09:25.494Z,49.10
2019-04-06T19:11:56.973Z,45.47
2019-04-06T19:14:25.895Z,51.33
2019-04-06T19:17:00.929Z,43.47
2019-04-06T19:19:29.756Z,42.83
2019-04-06T19:21:59.065Z,52.17
2019-04-06T19:24:46.333Z,46.07
2019-04-06T19:27:15.010Z,44.67
2019-04-06T19:29:43.996Z,47.63
2019-04-06T19:32:12.933Z,46.60
2019-04-06T19:34:41.869Z,47.33
2019-04-06T19:37:11.179Z,46.30
2019-04-06T19:39:40.171Z,45.93
2019-04-06T19:42:09.299Z,53.63
2019-04-06T19:44:38.409Z,50.03
2019-04-06T19:47:07.682Z,43.77
2019-04-06T19:49:36.592Z,42.63
2019-04-06T19:52:05.482Z,41.67
2019-04-06T19:54:34.439Z,48.97
2019-04-06T19:57:03.324Z,45.80
2019-04-06T19:59:32.608Z,41.83
2019-04-06T20:02:01.496Z,49.80
2019-04-06T20:04:30.810Z,45.40
2019-04-06T20:06:59.837Z,50.20
2019-04-06T20:09:29.199Z,47.83
2019-04-06T20:12:06.053Z,50.27
2019-04-06T20:14:28.877Z,47.53
2019-04-06T20:16:57.779Z,48.40
2019-04-06T20:19:27.285Z,51.47
2019-04-06T20:21:56.608Z,45.97
2019-04-06T20:24:27.376Z,45.37
2019-04-06T20:26:56.320Z,49.67
2019-04-06T20:29:28.527Z,52.93
2019-04-06T20:31:57.600Z,52.57
2019-04-06T20:34:26.605Z,50.43
2019-04-06T20:36:55.561Z,52.10
2019-04-06T20:39:24.506Z,50.73
2019-04-06T20:41:56.634Z,46.20
2019-04-06T20:44:25.855Z,50.07
2019-04-06T20:46:55.118Z,50.37
2019-04-06T20:49:27.352Z,47.07
2019-04-06T20:51:58.730Z,52.97
2019-04-06T20:54:27.272Z,51.87
2019-04-06T20:56:58.270Z,54.43
2019-04-06T20:59:27.113Z,53.17
2019-04-06T21:01:56.005Z,52.40
2019-04-06T21:04:26.429Z,53.80
2019-04-06T21:06:56.913Z,45.80
2019-04-06T21:09:26.105Z,53.37
2019-04-06T21:11:55.853Z,51.80
2019-04-06T21:14:26.250Z,54.00
2019-04-06T21:16:55.622Z,54.37
2019-04-06T21:19:25.033Z,53.90
2019-04-06T21:21:55.604Z,60.63
2019-04-06T21:24:26.442Z,63.73
2019-04-06T21:26:57.112Z,54.03
2019-04-06T21:29:26.886Z,61.57
2019-04-06T21:31:56.258Z,58.47
2019-04-06T21:34:28.141Z,66.57
2019-04-06T21:36:57.497Z,59.27
2019-04-06T21:39:30.639Z,58.57
2019-04-06T21:41:59.739Z,69.87
2019-04-06T21:44:28.642Z,64.10
2019-04-06T21:46:57.581Z,59.60
2019-04-06T21:49:28.003Z,60.70
2019-04-06T21:51:57.129Z,61.23
2019-04-06T21:54:26.372Z,65.73
2019-04-06T21:56:58.393Z,57.77
2019-04-06T21:59:27.326Z,56.43
2019-04-06T22:01:59.084Z,61.07
2019-04-06T22:04:28.300Z,61.40
2019-04-06T22:06:57.325Z,59.87
2019-04-06T22:09:27.098Z,64.67
2019-04-06T22:11:58.909Z,70.37
2019-04-06T22:14:28.295Z,60.90
2019-04-06T22:16:57.342Z,58.77
2019-04-06T22:19:28.938Z,57.50
2019-04-06T22:21:57.877Z,62.47
2019-04-06T22:24:26.791Z,56.87
2019-04-06T22:26:57.383Z,58.77
2019-04-06T22:29:29.816Z,58.23
2019-04-06T22:31:59.577Z,61.27
2019-04-06T22:34:36.345Z,54.27
2019-04-06T22:36:59.396Z,58.90
2019-04-06T22:39:28.446Z,63.33
2019-04-06T22:41:57.381Z,55.83
2019-04-06T22:44:26.618Z,55.57
2019-04-06T22:46:55.762Z,55.90
2019-04-06T22:49:27.580Z,60.83
2019-04-06T22:51:56.774Z,62.10
2019-04-06T22:54:25.749Z,58.70
2019-04-06T22:56:56.497Z,58.93
2019-04-06T22:59:25.845Z,55.23
2019-04-06T23:01:55.245Z,61.03
2019-04-06T23:04:28.745Z,62.80
2019-04-06T23:07:05.776Z,55.13
2019-04-06T23:09:34.771Z,62.97
2019-04-06T23:12:03.683Z,63.40
2019-04-06T23:14:32.856Z,60.70
2019-04-06T23:17:02.214Z,59.63
2019-04-06T23:19:31.165Z,63.73
2019-04-06T23:22:00.060Z,68.17
2019-04-06T23:24:29.007Z,61.70
2019-04-06T23:26:57.907Z,65.13
2019-04-06T23:29:27.266Z,56.03
2019-04-06T23:31:59.856Z,56.73
2019-04-06T23:34:29.090Z,61.97
2019-04-06T23:36:58.007Z,61.57
2019-04-06T23:39:27.014Z,64.50
2019-04-06T23:41:56.034Z,64.87
2019-04-06T23:44:25.189Z,59.60
2019-04-06T23:46:54.586Z,69.43
2019-04-06T23:49:25.731Z,60.27
2019-04-06T23:51:54.462Z,63.10
2019-04-06T23:54:23.896Z,61.70
2019-04-06T23:56:53.046Z,59.40
2019-04-06T23:59:22.250Z,69.60
